createdAt,value
2018-07-23T00:02:09.048Z,100686.83
2018-07-23T00:04:37.836Z,100679.38
2018-07-23T00:07:06.569Z,100679.03
2018-07-23T00:09:35.294Z,100682.30
2018-07-23T00:12:04.037Z,100683.31
2018-07-23T00:14:32.812Z,100679.73
2018-07-23T00:17:01.537Z,100680.45
2018-07-23T00:19:30.331Z,100683.68
2018-07-23T00:21:59.110Z,100678.74
2018-07-23T00:24:27.921Z,100682.01
2018-07-23T00:26:56.695Z,100685.24
2018-07-23T00:29:25.481Z,100689.33
2018-07-23T00:31:54.295Z,100687.63
2018-07-23T00:34:23.039Z,100679.96
2018-07-23T00:36:51.802Z,100683.23
2018-07-23T00:39:20.589Z,100682.03
2018-07-23T00:41:49.442Z,100678.80
2018-07-23T00:44:18.188Z,100686.12
2018-07-23T00:46:46.926Z,100686.97
2018-07-23T00:49:15.634Z,100679.81
2018-07-23T00:51:44.475Z,100678.45
2018-07-23T00:54:13.280Z,100683.25
2018-07-23T00:56:42.017Z,100689.55
2018-07-23T00:59:10.749Z,100695.50
2018-07-23T01:01:39.499Z,100690.25
2018-07-23T01:04:08.291Z,100688.89
2018-07-23T01:06:37.042Z,100690.77
2018-07-23T01:09:07.930Z,100689.05
2018-07-23T01:11:36.859Z,100692.83
2018-07-23T01:14:05.860Z,100691.47
2018-07-23T01:16:34.586Z,100690.61
2018-07-23T01:19:03.375Z,100698.78
2018-07-23T01:21:32.202Z,100686.19
2018-07-23T01:24:00.937Z,100692.48
2018-07-23T01:26:29.796Z,100690.78
2018-07-23T01:28:58.543Z,100685.88
2018-07-23T01:31:27.345Z,100691.83
2018-07-23T01:33:56.072Z,100686.05
2018-07-23T01:36:24.842Z,100692.84
2018-07-23T01:38:53.592Z,100688.77
2018-07-23T01:41:22.442Z,100690.33
2018-07-23T01:43:51.198Z,100688.11
2018-07-23T01:46:19.990Z,100693.05
2018-07-23T01:48:48.731Z,100696.79
2018-07-23T01:51:17.501Z,100690.48
2018-07-23T01:53:46.256Z,100690.48
2018-07-23T01:56:14.985Z,100687.11
2018-07-23T01:58:43.731Z,100695.28
2018-07-23T02:01:13.129Z,100687.63
2018-07-23T02:03:42.428Z,100688.13
2018-07-23T02:06:11.397Z,100690.55
2018-07-23T02:08:40.281Z,100695.13
2018-07-23T02:11:09.001Z,100691.56
2018-07-23T02:13:37.784Z,100696.69
2018-07-23T02:16:06.545Z,100703.80
2018-07-23T02:18:35.273Z,100705.17
2018-07-23T02:21:04.025Z,100701.79
2018-07-23T02:23:32.779Z,100703.16
2018-07-23T02:26:01.543Z,100704.52
2018-07-23T02:28:30.300Z,100703.35
2018-07-23T02:30:59.072Z,100709.10
2018-07-23T02:33:27.829Z,100706.58
2018-07-23T02:35:56.592Z,100715.59
2018-07-23T02:38:25.359Z,100714.41
2018-07-23T02:40:54.158Z,100718.48
2018-07-23T02:43:22.863Z,100717.63
2018-07-23T02:45:51.567Z,100721.41
2018-07-23T02:48:20.298Z,100721.05
2018-07-23T02:50:49.030Z,100725.14
2018-07-23T02:53:17.840Z,100731.09
2018-07-23T02:55:46.551Z,100728.91
2018-07-23T02:58:15.308Z,100729.42
2018-07-23T03:00:44.046Z,100720.40
2018-07-23T03:03:12.809Z,100727.71
2018-07-23T03:05:41.524Z,100731.48
2018-07-23T03:08:10.265Z,100727.91
2018-07-23T03:10:39.028Z,100725.35
2018-07-23T03:13:08.075Z,100731.64
2018-07-23T03:15:36.879Z,100733.86
2018-07-23T03:18:05.705Z,100729.94
2018-07-23T03:20:34.484Z,100734.02
2018-07-23T03:23:03.194Z,100733.20
2018-07-23T03:25:32.027Z,100736.44
2018-07-23T03:28:00.845Z,100730.48
2018-07-23T03:30:29.627Z,100734.56
2018-07-23T03:32:58.368Z,100734.02
2018-07-23T03:35:27.177Z,100733.86
2018-07-23T03:37:55.949Z,100727.91
2018-07-23T03:40:24.660Z,100730.44
2018-07-23T03:42:53.480Z,100732.45
2018-07-23T03:45:22.427Z,100730.58
2018-07-23T03:47:51.133Z,100738.39
2018-07-23T03:50:20.017Z,100736.02
2018-07-23T03:52:48.774Z,100731.73
2018-07-23T03:55:17.573Z,100729.16
2018-07-23T03:57:46.316Z,100730.33
2018-07-23T04:00:15.039Z,100732.37
2018-07-23T04:02:43.746Z,100732.17
2018-07-23T04:05:12.450Z,100734.20
2018-07-23T04:07:41.168Z,100734.88
2018-07-23T04:10:09.869Z,100741.49
2018-07-23T04:12:38.592Z,100734.48
2018-07-23T04:15:07.819Z,100736.54
2018-07-23T04:17:36.694Z,100740.42
2018-07-23T04:20:05.429Z,100742.13
2018-07-23T04:22:34.132Z,100744.14
2018-07-23T04:25:02.898Z,100745.86
2018-07-23T04:27:31.633Z,100746.51
2018-07-23T04:30:00.317Z,100749.37
2018-07-23T04:32:29.132Z,100749.18
2018-07-23T04:34:57.861Z,100746.80
2018-07-23T04:37:26.532Z,100750.18
2018-07-23T04:39:55.214Z,100747.26
2018-07-23T04:42:23.937Z,100748.77
2018-07-23T04:44:52.753Z,100749.11
2018-07-23T04:47:21.496Z,100753.03
2018-07-23T04:49:50.227Z,100753.20
2018-07-23T04:52:18.968Z,100746.20
2018-07-23T04:54:47.706Z,100752.81
2018-07-23T04:57:16.453Z,100751.79
2018-07-23T04:59:45.201Z,100755.00
2018-07-23T05:02:14.018Z,100756.16
2018-07-23T05:04:42.723Z,100753.78
2018-07-23T05:07:11.413Z,100751.71
2018-07-23T05:09:40.130Z,100756.96
2018-07-23T05:12:08.985Z,100762.24
2018-07-23T05:14:37.742Z,100758.81
2018-07-23T05:17:06.505Z,100753.70
2018-07-23T05:19:35.201Z,100749.42
2018-07-23T05:22:04.038Z,100751.94
2018-07-23T05:24:32.853Z,100753.98
2018-07-23T05:27:01.535Z,100751.92
2018-07-23T05:29:30.254Z,100751.20
2018-07-23T05:31:58.990Z,100755.13
2018-07-23T05:34:27.887Z,100759.52
2018-07-23T05:36:56.583Z,100754.22
2018-07-23T05:39:25.422Z,100759.80
2018-07-23T05:41:54.177Z,100762.37
2018-07-23T05:44:23.124Z,100756.72
2018-07-23T05:46:51.908Z,100755.15
2018-07-23T05:49:20.886Z,100754.47
2018-07-23T05:51:49.677Z,100757.00
2018-07-23T05:54:18.411Z,100755.47
2018-07-23T05:56:47.220Z,100755.27
2018-07-23T05:59:15.901Z,100760.86
2018-07-23T06:01:44.669Z,100760.66
2018-07-23T06:04:13.386Z,100762.36
2018-07-23T06:06:42.174Z,100755.37
2018-07-23T06:09:11.184Z,100755.52
2018-07-23T06:11:39.875Z,100755.34
2018-07-23T06:14:08.642Z,100756.84
2018-07-23T06:16:37.413Z,100758.55
2018-07-23T06:19:06.198Z,100756.98
2018-07-23T06:21:35.022Z,100753.55
2018-07-23T06:24:03.762Z,100752.02
2018-07-23T06:26:32.514Z,100755.05
2018-07-23T06:29:01.247Z,100762.00
2018-07-23T06:31:29.927Z,100763.70
2018-07-23T06:33:58.691Z,100764.02
2018-07-23T06:36:27.594Z,100770.16
2018-07-23T06:38:56.415Z,100760.91
2018-07-23T06:41:25.228Z,100762.11
2018-07-23T06:43:53.929Z,100764.62
2018-07-23T06:46:22.718Z,100769.06
2018-07-23T06:48:51.455Z,100763.75
2018-07-23T06:51:20.153Z,100762.69
2018-07-23T06:53:48.870Z,100761.16
2018-07-23T06:56:17.617Z,100760.64
2018-07-23T06:58:46.380Z,100768.63
2018-07-23T07:01:15.115Z,100772.51
2018-07-23T07:03:43.876Z,100770.97
2018-07-23T07:19:02.765Z,100765.17
2018-07-23T07:21:31.525Z,100768.59
2018-07-23T07:24:00.269Z,100767.88
2018-07-23T07:26:29.050Z,100767.67
2018-07-23T07:28:57.815Z,100771.05
2018-07-23T07:31:26.570Z,100769.51
2018-07-23T07:33:55.330Z,100769.81
2018-07-23T07:36:24.036Z,100765.04
2018-07-23T07:38:52.853Z,100767.22
2018-07-23T07:41:21.580Z,100771.66
2018-07-23T07:43:51.183Z,100765.69
2018-07-23T07:46:20.063Z,100771.45
2018-07-23T07:48:48.853Z,100772.81
2018-07-23T07:51:17.601Z,100773.16
2018-07-23T07:53:46.334Z,100772.81
2018-07-23T07:56:15.108Z,100773.66
2018-07-23T07:58:43.881Z,100769.91
2018-07-23T08:01:12.679Z,100769.06
2018-07-23T08:03:41.381Z,100768.55
2018-07-23T08:06:10.102Z,100769.57
2018-07-23T08:08:38.805Z,100773.36
2018-07-23T08:11:07.501Z,100770.08
2018-07-23T08:13:36.386Z,100769.78
2018-07-23T08:16:05.309Z,100761.08
2018-07-23T08:18:34.037Z,100760.74
2018-07-23T08:21:02.798Z,100760.41
2018-07-23T08:23:31.557Z,100760.61
2018-07-23T08:26:00.345Z,100758.08
2018-07-23T08:28:29.263Z,100757.74
2018-07-23T08:30:57.998Z,100760.98
2018-07-23T08:33:26.793Z,100760.67
2018-07-23T08:35:55.548Z,100771.59
2018-07-23T08:38:24.312Z,100773.46
2018-07-23T08:40:53.197Z,100773.97
2018-07-23T08:43:21.996Z,100776.91
2018-07-23T08:45:50.781Z,100780.66
2018-07-23T08:48:19.465Z,100779.80
2018-07-23T08:50:48.157Z,100775.41
2018-07-23T08:53:16.916Z,100777.28
2018-07-23T08:55:45.685Z,100775.92
2018-07-23T08:58:14.441Z,100779.66
2018-07-23T09:00:43.246Z,100783.42
2018-07-23T09:03:11.954Z,100783.63
2018-07-23T09:05:40.673Z,100780.38
2018-07-23T09:08:09.443Z,100782.77
2018-07-23T09:10:38.251Z,100779.73
2018-07-23T09:13:07.038Z,100786.21
2018-07-23T09:15:35.729Z,100794.59
2018-07-23T09:18:04.482Z,100791.87
2018-07-23T09:20:33.226Z,100779.97
2018-07-23T09:23:02.001Z,100780.83
2018-07-23T09:25:35.979Z,100778.27
2018-07-23T09:28:04.744Z,100784.77
2018-07-23T09:30:39.070Z,100779.49
2018-07-23T09:33:08.547Z,100781.56
2018-07-23T09:35:37.304Z,100787.53
2018-07-23T09:38:06.133Z,100785.52
2018-07-23T09:40:34.912Z,100788.41
2018-07-23T09:43:04.265Z,100786.54
2018-07-23T09:45:33.112Z,100788.41
2018-07-23T09:48:01.892Z,100787.25
2018-07-23T09:50:30.741Z,100784.19
2018-07-23T09:52:59.523Z,100783.02
2018-07-23T09:55:28.319Z,100782.69
2018-07-23T09:57:57.161Z,100777.44
2018-07-23T10:00:30.923Z,100774.36
2018-07-23T10:02:59.752Z,100774.05
2018-07-23T10:05:28.471Z,100770.98
2018-07-23T10:07:57.222Z,100769.63
2018-07-23T10:10:25.983Z,100766.59
2018-07-23T10:12:54.790Z,100765.53
2018-07-23T10:15:23.584Z,100773.06
2018-07-23T10:17:52.314Z,100764.38
2018-07-23T10:20:21.129Z,100774.77
2018-07-23T10:22:50.496Z,100780.22
2018-07-23T10:25:19.513Z,100769.31
2018-07-23T10:27:49.118Z,100775.80
2018-07-23T10:30:17.908Z,100770.84
2018-07-23T10:32:47.298Z,100772.41
2018-07-23T10:35:16.147Z,100768.33
2018-07-23T10:37:44.913Z,100768.83
2018-07-23T10:40:15.196Z,100766.11
2018-07-23T10:42:44.585Z,100764.23
2018-07-23T10:45:13.320Z,100770.70
2018-07-23T10:47:42.157Z,100769.00
2018-07-23T11:06:16.696Z,100763.81
2018-07-23T11:21:35.461Z,100759.44
2018-07-23T11:24:05.539Z,100758.92
2018-07-23T11:26:34.378Z,100766.05
2018-07-23T11:29:03.843Z,100756.00
2018-07-23T11:31:32.876Z,100761.28
2018-07-23T11:34:03.214Z,100761.80
2018-07-23T11:36:32.537Z,100762.95
2018-07-23T11:39:01.304Z,100755.63
2018-07-23T11:54:20.141Z,100768.47
2018-07-23T11:56:49.623Z,100765.40
2018-07-23T11:59:25.575Z,100772.86
2018-07-23T12:01:54.444Z,100767.41
2018-07-23T12:04:24.151Z,100768.27
2018-07-23T12:06:52.908Z,100765.38
2018-07-23T12:09:21.677Z,100766.02
2018-07-23T12:11:50.472Z,100760.91
2018-07-23T12:14:19.258Z,100765.52
2018-07-23T12:16:48.026Z,100755.97
2018-07-23T12:19:16.730Z,100759.55
2018-07-23T12:21:45.518Z,100759.35
2018-07-23T12:24:14.277Z,100757.64
2018-07-23T12:26:43.002Z,100757.84
2018-07-23T12:29:11.720Z,100767.73
2018-07-23T12:31:40.607Z,100760.38
2018-07-23T12:34:09.350Z,100758.19
2018-07-23T12:36:38.113Z,100756.83
2018-07-23T12:39:09.783Z,100759.55
2018-07-23T12:41:38.651Z,100751.03
2018-07-23T12:44:07.429Z,100747.80
2018-07-23T12:46:36.222Z,100746.61
2018-07-23T12:49:05.094Z,100744.93
2018-07-23T12:51:33.897Z,100751.23
2018-07-23T12:54:02.782Z,100746.80
2018-07-23T12:56:31.602Z,100747.66
2018-07-23T12:59:00.484Z,100742.72
2018-07-23T13:01:29.593Z,100739.99
2018-07-23T13:03:58.328Z,100741.02
2018-07-23T13:06:27.117Z,100744.25
2018-07-23T13:08:55.912Z,100736.62
2018-07-23T13:11:24.704Z,100735.77
2018-07-23T13:13:53.410Z,100741.73
2018-07-23T13:16:22.474Z,100734.06
2018-07-23T13:18:51.199Z,100739.51
2018-07-23T13:21:19.975Z,100735.42
2018-07-23T13:23:48.785Z,100725.37
2018-07-23T13:26:17.532Z,100727.45
2018-07-23T13:28:46.268Z,100735.11
2018-07-23T13:31:15.069Z,100738.00
2018-07-23T13:33:43.949Z,100734.97
2018-07-23T13:36:12.759Z,100734.12
2018-07-23T13:38:41.582Z,100731.91
2018-07-23T13:41:10.335Z,100729.69
2018-07-23T13:43:39.173Z,100727.81
2018-07-23T13:46:07.993Z,100729.69
2018-07-23T13:48:36.829Z,100731.05
2018-07-23T13:51:05.578Z,100724.95
2018-07-23T13:53:34.294Z,100722.56
2018-07-23T13:56:03.297Z,100727.47
2018-07-23T13:58:32.013Z,100729.69
2018-07-23T14:01:00.718Z,100729.38
2018-07-23T14:03:29.512Z,100729.38
2018-07-23T14:05:58.339Z,100724.95
2018-07-23T14:08:27.177Z,100734.48
2018-07-23T14:10:56.011Z,100729.89
2018-07-23T14:13:24.742Z,100733.47
2018-07-23T14:15:53.464Z,100734.83
2018-07-23T14:18:22.229Z,100732.11
2018-07-23T14:20:51.041Z,100731.77
2018-07-23T14:23:19.811Z,100730.41
2018-07-23T14:25:48.597Z,100729.38
2018-07-23T14:28:17.351Z,100733.78
2018-07-23T14:30:46.126Z,100738.92
2018-07-23T14:33:14.858Z,100735.65
2018-07-23T14:35:43.582Z,100741.44
2018-07-23T14:38:12.405Z,100734.29
2018-07-23T14:40:41.142Z,100739.23
2018-07-23T14:43:09.954Z,100736.50
2018-07-23T14:45:38.777Z,100731.39
2018-07-23T14:48:07.588Z,100733.78
2018-07-23T14:50:36.518Z,100725.61
2018-07-23T14:53:05.338Z,100726.45
2018-07-23T14:55:34.236Z,100725.95
2018-07-23T14:58:03.007Z,100723.73
2018-07-23T15:00:31.743Z,100730.89
2018-07-23T15:03:00.589Z,100723.22
2018-07-23T15:05:29.427Z,100733.06
2018-07-23T15:07:59.377Z,100727.11
2018-07-23T15:10:28.191Z,100727.62
2018-07-23T15:12:57.014Z,100722.16
2018-07-23T15:15:25.785Z,100727.11
2018-07-23T15:17:54.536Z,100723.88
2018-07-23T15:20:24.213Z,100719.78
2018-07-23T15:22:52.999Z,100722.85
2018-07-23T15:25:21.831Z,100725.58
2018-07-23T15:27:50.613Z,100722.85
2018-07-23T15:30:19.491Z,100721.48
2018-07-23T15:32:48.283Z,100723.36
2018-07-23T15:35:17.081Z,100722.85
2018-07-23T15:37:45.941Z,100726.94
2018-07-23T15:40:14.823Z,100722.30
2018-07-23T15:42:43.641Z,100722.30
2018-07-23T15:45:12.602Z,100725.58
2018-07-23T15:47:41.304Z,100727.45
2018-07-23T15:50:10.180Z,100726.59
2018-07-23T15:52:39.223Z,100730.17
2018-07-23T15:55:08.022Z,100729.83
2018-07-23T15:57:36.784Z,100727.95
2018-07-23T16:00:06.206Z,100719.44
2018-07-23T16:02:35.293Z,100722.51
2018-07-23T16:05:04.230Z,100725.75
2018-07-23T16:07:33.173Z,100724.89
2018-07-23T16:10:02.000Z,100731.19
2018-07-23T16:12:30.853Z,100731.19
2018-07-23T16:14:59.775Z,100731.70
2018-07-23T16:17:30.299Z,100726.25
2018-07-23T16:19:59.156Z,100729.52
2018-07-23T16:22:27.925Z,100730.55
2018-07-23T16:24:56.642Z,100731.91
2018-07-23T16:27:25.443Z,100731.05
2018-07-23T16:29:54.192Z,100735.14
2018-07-23T16:32:23.720Z,100734.29
2018-07-23T16:34:52.495Z,100738.37
2018-07-23T16:37:21.231Z,100739.23
2018-07-23T16:39:50.062Z,100737.22
2018-07-23T16:42:18.902Z,100744.53
2018-07-23T16:44:47.738Z,100744.23
2018-07-23T16:47:16.514Z,100744.23
2018-07-23T16:49:45.325Z,100748.31
2018-07-23T16:52:15.222Z,100748.83
2018-07-23T16:54:44.030Z,100755.30
2018-07-23T17:00:43.834Z,100755.15
2018-07-23T17:03:12.602Z,100759.58
2018-07-23T17:05:44.549Z,100753.45
2018-07-23T17:08:14.625Z,100758.39
2018-07-23T17:10:44.453Z,100756.72
2018-07-23T17:13:13.502Z,100760.80
2018-07-23T17:15:42.337Z,100760.46
2018-07-23T17:18:12.071Z,100759.61
2018-07-23T17:20:40.848Z,100766.77
2018-07-23T17:23:09.703Z,100767.27
2018-07-23T17:25:38.610Z,100769.99
2018-07-23T17:28:07.444Z,100771.02
2018-07-23T17:30:36.799Z,100766.42
2018-07-23T17:33:05.690Z,100764.75
2018-07-23T17:35:34.650Z,100762.84
2018-07-23T17:38:03.594Z,100773.23
2018-07-23T17:40:32.657Z,100762.84
2018-07-23T17:43:01.524Z,100765.05
2018-07-23T17:45:31.212Z,100758.75
2018-07-23T17:48:00.092Z,100768.63
2018-07-23T17:50:29.592Z,100765.56
2018-07-23T17:52:58.482Z,100766.42
2018-07-23T17:55:27.527Z,100759.61
2018-07-23T17:57:56.406Z,100763.19
2018-07-23T18:00:25.451Z,100765.40
2018-07-23T18:02:54.369Z,100767.47
2018-07-23T18:05:23.308Z,100770.50
2018-07-23T18:07:52.308Z,100775.95
2018-07-23T18:10:22.025Z,100775.45
2018-07-23T18:12:50.938Z,100774.94
2018-07-23T18:15:19.863Z,100773.73
2018-07-23T18:17:48.918Z,100775.10
2018-07-23T18:20:17.945Z,100777.83
2018-07-23T18:22:46.895Z,100775.95
2018-07-23T18:25:15.838Z,100775.64
2018-07-23T18:27:44.705Z,100779.73
2018-07-23T18:30:14.407Z,100785.18
2018-07-23T18:32:43.494Z,100783.81
2018-07-23T18:35:12.998Z,100791.98
2018-07-23T18:37:41.985Z,100800.67
2018-07-23T18:40:11.610Z,100800.67
2018-07-23T18:42:41.606Z,100800.98
2018-07-23T18:45:10.517Z,100801.19
2018-07-23T18:47:40.499Z,100806.13
2018-07-23T18:50:09.436Z,100808.50
2018-07-23T18:52:38.444Z,100810.37
2018-07-23T18:55:07.356Z,100811.23
2018-07-23T18:57:36.659Z,100817.73
2018-07-23T19:00:06.405Z,100815.83
2018-07-23T19:02:35.260Z,100815.83
2018-07-23T19:05:04.307Z,100820.45
2018-07-23T19:07:33.216Z,100827.77
2018-07-23T19:10:02.100Z,100825.91
2018-07-23T19:12:31.087Z,100823.34
2018-07-23T19:14:59.938Z,100826.06
2018-07-23T19:17:29.163Z,100834.24
2018-07-23T19:19:58.184Z,100835.09
2018-07-23T19:22:27.266Z,100834.44
2018-07-23T19:24:56.197Z,100831.72
2018-07-23T19:27:25.080Z,100839.69
2018-07-23T19:29:54.049Z,100839.89
2018-07-23T19:32:23.594Z,100840.74
2018-07-23T19:34:53.103Z,100839.03
2018-07-23T19:37:22.360Z,100848.57
2018-07-23T19:39:51.330Z,100846.35
2018-07-23T19:42:20.540Z,100843.63
2018-07-23T19:44:49.659Z,100847.72
2018-07-23T19:47:18.620Z,100846.55
2018-07-23T19:49:47.566Z,100847.41
2018-07-23T19:52:16.709Z,100848.77
2018-07-23T19:54:45.908Z,100852.00
2018-07-23T19:57:14.851Z,100851.66
2018-07-23T19:59:43.905Z,100852.16
2018-07-23T20:02:12.915Z,100857.61
2018-07-23T20:04:42.959Z,100858.98
2018-07-23T20:07:12.872Z,100856.95
2018-07-23T20:09:42.434Z,100856.95
2018-07-23T20:12:11.410Z,100856.10
2018-07-23T20:14:40.405Z,100857.47
2018-07-23T20:17:09.511Z,100854.94
2018-07-23T20:19:39.127Z,100856.61
2018-07-23T20:22:08.239Z,100859.53
2018-07-23T20:24:37.381Z,100854.28
2018-07-23T20:27:06.415Z,100854.28
2018-07-23T20:29:35.323Z,100855.30
2018-07-23T20:32:04.954Z,100850.86
2018-07-23T20:34:34.112Z,100846.78
2018-07-23T20:37:03.262Z,100849.19
2018-07-23T20:39:33.062Z,100847.83
2018-07-23T20:42:02.639Z,100851.57
2018-07-23T20:44:31.973Z,100845.81
2018-07-23T20:47:01.318Z,100845.81
2018-07-23T20:49:30.422Z,100845.27
2018-07-23T20:51:59.410Z,100844.61
2018-07-23T20:54:28.506Z,100847.68
2018-07-23T20:56:57.579Z,100848.19
2018-07-23T20:59:26.933Z,100845.97
2018-07-23T21:01:56.166Z,100844.11
2018-07-23T21:04:25.211Z,100841.00
2018-07-23T21:06:54.405Z,100847.34
2018-07-23T21:09:23.434Z,100851.42
2018-07-23T21:11:52.406Z,100851.89
2018-07-23T21:14:21.432Z,100852.95
2018-07-23T21:16:50.473Z,100846.45
2018-07-23T21:19:19.414Z,100853.26
2018-07-23T21:21:48.311Z,100851.89
2018-07-23T21:24:17.242Z,100854.14
2018-07-23T21:26:46.124Z,100850.06
2018-07-23T21:29:15.078Z,100860.06
2018-07-23T21:31:43.972Z,100855.16
2018-07-23T21:34:13.274Z,100860.06
2018-07-23T21:36:42.209Z,100866.41
2018-07-23T21:39:11.557Z,100859.76
2018-07-23T21:41:40.649Z,100864.70
2018-07-23T21:44:09.504Z,100859.76
2018-07-23T21:46:39.813Z,100866.56
2018-07-23T21:49:08.873Z,100862.48
2018-07-23T21:51:38.008Z,100860.27
2018-07-23T21:54:07.106Z,100867.42
2018-07-23T21:56:36.232Z,100862.48
2018-07-23T21:59:05.351Z,100869.80
2018-07-23T22:01:34.231Z,100873.38
2018-07-23T22:04:03.189Z,100874.73
2018-07-23T22:06:32.705Z,100875.24
2018-07-23T22:09:01.905Z,100870.30
2018-07-23T22:11:30.821Z,100867.08
2018-07-23T22:14:00.507Z,100872.02
2018-07-23T22:16:29.399Z,100872.52
2018-07-23T22:18:58.338Z,100869.29
2018-07-23T22:21:27.207Z,100873.38
2018-07-23T22:23:56.075Z,100872.52
2018-07-23T22:26:24.919Z,100874.73
2018-07-23T22:28:53.722Z,100873.03
2018-07-23T22:31:22.661Z,100873.03
2018-07-23T22:33:51.569Z,100878.98
2018-07-23T22:36:20.576Z,100872.02
2018-07-23T22:38:49.593Z,100877.97
2018-07-23T22:41:18.475Z,100881.20
2018-07-23T22:43:47.311Z,100879.33
2018-07-23T22:46:16.185Z,100878.82
2018-07-23T22:48:45.047Z,100876.61
2018-07-23T22:51:13.934Z,100877.97
2018-07-23T22:53:42.771Z,100876.09
2018-07-23T22:56:11.517Z,100875.59
2018-07-23T22:58:40.354Z,100878.82
2018-07-23T23:01:10.067Z,100871.50
2018-07-23T23:03:38.857Z,100871.50
2018-07-23T23:06:07.707Z,100866.56
2018-07-23T23:08:36.514Z,100869.60
2018-07-23T23:11:05.314Z,100864.86
2018-07-23T23:13:36.133Z,100869.29
2018-07-23T23:16:05.140Z,100863.50
2018-07-23T23:18:34.087Z,100869.45
2018-07-23T23:21:03.630Z,100868.09
2018-07-23T23:23:32.404Z,100871.01
2018-07-23T23:26:01.195Z,100872.38
2018-07-23T23:28:29.961Z,100872.88
2018-07-23T23:30:58.825Z,100872.88
2018-07-23T23:33:27.612Z,100869.81
2018-07-23T23:35:56.373Z,100874.44
2018-07-23T23:38:25.184Z,100869.16
2018-07-23T23:40:53.985Z,100872.73
2018-07-23T23:43:22.851Z,100869.34
2018-07-23T23:45:51.602Z,100878.02
2018-07-23T23:48:20.410Z,100874.45
2018-07-23T23:50:49.249Z,100870.36
2018-07-23T23:53:19.129Z,100871.41
2018-07-23T23:55:47.926Z,100874.64
2018-07-23T23:58:16.641Z,100873.28
